sensor_id;sensor_type;location;lat;lon;timestamp;P1;durP1;ratioP1;P2;durP2;ratioP2
39930;SDS011;26635;-35.248;149.138;2022-07-15T00:32:44;12.00;;;5.27;;
39930;SDS011;26635;-35.248;149.138;2022-07-15T00:36:18;8.00;;;4.97;;
39930;SDS011;26635;-35.248;149.138;2022-07-15T00:38:49;9.20;;;5.32;;
39930;SDS011;26635;-35.248;149.138;2022-07-15T00:41:20;10.07;;;4.82;;
39930;SDS011;26635;-35.248;149.138;2022-07-15T00:43:50;7.40;;;4.35;;
39930;SDS011;26635;-35.248;149.138;2022-07-15T00:46:21;8.65;;;4.60;;
39930;SDS011;26635;-35.248;149.138;2022-07-15T00:48:51;7.60;;;3.97;;
39930;SDS011;26635;-35.248;149.138;2022-07-15T00:51:22;8.85;;;3.60;;
39930;SDS011;26635;-35.248;149.138;2022-07-15T00:53:52;8.18;;;4.28;;
39930;SDS011;26635;-35.248;149.138;2022-07-15T00:56:25;7.22;;;4.22;;
39930;SDS011;26635;-35.248;149.138;2022-07-15T00:58:59;7.43;;;4.10;;
39930;SDS011;26635;-35.248;149.138;2022-07-15T01:01:54;6.10;;;4.13;;
39930;SDS011;26635;-35.248;149.138;2022-07-15T01:04:40;6.35;;;4.47;;
39930;SDS011;26635;-35.248;149.138;2022-07-15T01:08:04;9.90;;;4.65;;
39930;SDS011;26635;-35.248;149.138;2022-07-15T01:10:54;5.82;;;3.35;;
39930;SDS011;26635;-35.248;149.138;2022-07-15T01:13:28;5.38;;;2.95;;
39930;SDS011;26635;-35.248;149.138;2022-07-15T01:16:00;5.78;;;3.20;;
39930;SDS011;26635;-35.248;149.138;2022-07-15T01:19:02;4.63;;;3.08;;
39930;SDS011;26635;-35.248;149.138;2022-07-15T01:21:53;4.53;;;2.47;;
39930;SDS011;26635;-35.248;149.138;2022-07-15T01:24:27;5.35;;;3.05;;
39930;SDS011;26635;-35.248;149.138;2022-07-15T01:26:58;5.30;;;3.53;;
39930;SDS011;26635;-35.248;149.138;2022-07-15T01:29:43;9.73;;;3.90;;
39930;SDS011;26635;-35.248;149.138;2022-07-15T01:32:17;6.40;;;3.85;;
39930;SDS011;26635;-35.248;149.138;2022-07-15T01:34:50;8.15;;;4.55;;
39930;SDS011;26635;-35.248;149.138;2022-07-15T01:37:21;6.35;;;3.45;;
39930;SDS011;26635;-35.248;149.138;2022-07-15T01:39:52;6.57;;;3.90;;
39930;SDS011;26635;-35.248;149.138;2022-07-15T01:42:23;6.05;;;2.85;;
39930;SDS011;26635;-35.248;149.138;2022-07-15T01:44:53;5.50;;;3.30;;
39930;SDS011;26635;-35.248;149.138;2022-07-15T01:47:25;4.25;;;2.65;;
39930;SDS011;26635;-35.248;149.138;2022-07-15T01:49:56;4.18;;;2.50;;
39930;SDS011;26635;-35.248;149.138;2022-07-15T01:52:26;3.72;;;1.90;;
39930;SDS011;26635;-35.248;149.138;2022-07-15T01:55:07;4.80;;;1.90;;
39930;SDS011;26635;-35.248;149.138;2022-07-15T01:58:07;3.55;;;1.58;;
39930;SDS011;26635;-35.248;149.138;2022-07-15T02:00:38;3.70;;;1.88;;
39930;SDS011;26635;-35.248;149.138;2022-07-15T02:03:09;3.50;;;2.20;;
39930;SDS011;26635;-35.248;149.138;2022-07-15T02:05:40;3.90;;;2.13;;
39930;SDS011;26635;-35.248;149.138;2022-07-15T02:08:11;2.60;;;1.70;;
39930;SDS011;26635;-35.248;149.138;2022-07-15T02:10:50;3.65;;;1.55;;
39930;SDS011;26635;-35.248;149.138;2022-07-15T02:13:21;4.07;;;1.77;;
39930;SDS011;26635;-35.248;149.138;2022-07-15T02:15:51;3.65;;;2.08;;
39930;SDS011;26635;-35.248;149.138;2022-07-15T02:18:25;4.22;;;2.10;;
39930;SDS011;26635;-35.248;149.138;2022-07-15T02:20:58;3.65;;;2.47;;
39930;SDS011;26635;-35.248;149.138;2022-07-15T02:23:29;3.45;;;1.70;;
39930;SDS011;26635;-35.248;149.138;2022-07-15T02:26:00;5.53;;;1.95;;
39930;SDS011;26635;-35.248;149.138;2022-07-15T02:28:48;2.25;;;1.20;;
39930;SDS011;26635;-35.248;149.138;2022-07-15T02:31:28;1.63;;;0.90;;
39930;SDS011;26635;-35.248;149.138;2022-07-15T02:34:42;1.30;;;0.80;;
39930;SDS011;26635;-35.248;149.138;2022-07-15T02:37:29;2.30;;;1.10;;
39930;SDS011;26635;-35.248;149.138;2022-07-15T02:40:12;4.55;;;1.50;;
39930;SDS011;26635;-35.248;149.138;2022-07-15T02:43:13;2.75;;;1.30;;
39930;SDS011;26635;-35.248;149.138;2022-07-15T02:46:08;2.75;;;1.10;;
39930;SDS011;26635;-35.248;149.138;2022-07-15T02:48:45;1.98;;;1.10;;
39930;SDS011;26635;-35.248;149.138;2022-07-15T02:51:30;2.58;;;1.30;;
39930;SDS011;26635;-35.248;149.138;2022-07-15T02:54:12;2.97;;;1.35;;
39930;SDS011;26635;-35.248;149.138;2022-07-15T02:56:43;3.95;;;1.30;;
39930;SDS011;26635;-35.248;149.138;2022-07-15T02:59:14;2.28;;;1.10;;
39930;SDS011;26635;-35.248;149.138;2022-07-15T03:01:44;4.53;;;1.10;;
39930;SDS011;26635;-35.248;149.138;2022-07-15T03:04:17;2.30;;;1.05;;
39930;SDS011;26635;-35.248;149.138;2022-07-15T03:06:48;4.45;;;1.05;;
39930;SDS011;26635;-35.248;149.138;2022-07-15T03:09:18;5.30;;;1.33;;
39930;SDS011;26635;-35.248;149.138;2022-07-15T03:11:49;3.67;;;1.17;;
39930;SDS011;26635;-35.248;149.138;2022-07-15T03:14:20;3.88;;;1.80;;
39930;SDS011;26635;-35.248;149.138;2022-07-15T03:16:52;2.92;;;1.35;;
39930;SDS011;26635;-35.248;149.138;2022-07-15T03:19:23;2.78;;;0.90;;
39930;SDS011;26635;-35.248;149.138;2022-07-15T03:21:54;1.90;;;0.90;;
39930;SDS011;26635;-35.248;149.138;2022-07-15T03:24:26;4.30;;;1.23;;
39930;SDS011;26635;-35.248;149.138;2022-07-15T03:26:57;2.75;;;1.10;;
39930;SDS011;26635;-35.248;149.138;2022-07-15T03:29:27;1.48;;;0.70;;
39930;SDS011;26635;-35.248;149.138;2022-07-15T03:31:59;4.82;;;1.85;;
39930;SDS011;26635;-35.248;149.138;2022-07-15T03:34:29;1.75;;;0.73;;
39930;SDS011;26635;-35.248;149.138;2022-07-15T03:36:59;1.88;;;0.80;;
39930;SDS011;26635;-35.248;149.138;2022-07-15T03:39:30;2.72;;;0.98;;
39930;SDS011;26635;-35.248;149.138;2022-07-15T03:42:01;3.53;;;0.80;;
39930;SDS011;26635;-35.248;149.138;2022-07-15T03:44:32;2.53;;;1.13;;
39930;SDS011;26635;-35.248;149.138;2022-07-15T03:47:02;2.20;;;0.60;;
39930;SDS011;26635;-35.248;149.138;2022-07-15T03:49:33;2.95;;;0.70;;
39930;SDS011;26635;-35.248;149.138;2022-07-15T03:52:04;1.20;;;0.60;;
39930;SDS011;26635;-35.248;149.138;2022-07-15T03:54:35;2.20;;;0.60;;
39930;SDS011;26635;-35.248;149.138;2022-07-15T03:57:05;1.88;;;0.93;;
39930;SDS011;26635;-35.248;149.138;2022-07-15T03:59:35;1.67;;;0.90;;
39930;SDS011;26635;-35.248;149.138;2022-07-15T04:02:06;1.77;;;0.85;;
39930;SDS011;26635;-35.248;149.138;2022-07-15T04:04:37;1.30;;;0.70;;
39930;SDS011;26635;-35.248;149.138;2022-07-15T04:07:07;2.72;;;0.80;;
39930;SDS011;26635;-35.248;149.138;2022-07-15T04:09:38;1.30;;;0.70;;
39930;SDS011;26635;-35.248;149.138;2022-07-15T04:12:12;2.75;;;1.20;;
39930;SDS011;26635;-35.248;149.138;2022-07-15T04:14:43;3.47;;;0.98;;
39930;SDS011;26635;-35.248;149.138;2022-07-15T04:17:14;1.60;;;0.75;;
39930;SDS011;26635;-35.248;149.138;2022-07-15T04:19:46;3.28;;;1.08;;
39930;SDS011;26635;-35.248;149.138;2022-07-15T04:22:18;1.83;;;1.20;;
39930;SDS011;26635;-35.248;149.138;2022-07-15T04:24:49;2.17;;;0.95;;
39930;SDS011;26635;-35.248;149.138;2022-07-15T04:27:19;3.35;;;0.90;;
39930;SDS011;26635;-35.248;149.138;2022-07-15T04:29:51;2.22;;;1.00;;
39930;SDS011;26635;-35.248;149.138;2022-07-15T04:32:21;2.30;;;0.90;;
39930;SDS011;26635;-35.248;149.138;2022-07-15T04:34:52;1.45;;;0.90;;
39930;SDS011;26635;-35.248;149.138;2022-07-15T04:37:23;1.95;;;0.98;;
39930;SDS011;26635;-35.248;149.138;2022-07-15T04:39:54;2.35;;;1.00;;
39930;SDS011;26635;-35.248;149.138;2022-07-15T04:42:26;2.25;;;0.98;;
39930;SDS011;26635;-35.248;149.138;2022-07-15T04:44:57;3.80;;;1.58;;
39930;SDS011;26635;-35.248;149.138;2022-07-15T04:47:28;4.85;;;2.28;;
39930;SDS011;26635;-35.248;149.138;2022-07-15T04:49:58;3.83;;;1.48;;
39930;SDS011;26635;-35.248;149.138;2022-07-15T04:52:48;2.67;;;1.30;;
39930;SDS011;26635;-35.248;149.138;2022-07-15T04:55:19;2.10;;;1.00;;
39930;SDS011;26635;-35.248;149.138;2022-07-15T04:57:51;2.08;;;1.10;;
39930;SDS011;26635;-35.248;149.138;2022-07-15T05:00:23;2.17;;;0.95;;
39930;SDS011;26635;-35.248;149.138;2022-07-15T05:02:53;2.00;;;1.02;;
39930;SDS011;26635;-35.248;149.138;2022-07-15T05:05:24;2.25;;;0.90;;
39930;SDS011;26635;-35.248;149.138;2022-07-15T05:07:54;2.80;;;0.77;;
39930;SDS011;26635;-35.248;149.138;2022-07-15T05:10:32;2.30;;;1.10;;
39930;SDS011;26635;-35.248;149.138;2022-07-15T05:13:04;1.73;;;0.80;;
39930;SDS011;26635;-35.248;149.138;2022-07-15T05:15:35;1.58;;;0.88;;
39930;SDS011;26635;-35.248;149.138;2022-07-15T05:18:05;3.72;;;1.00;;
39930;SDS011;26635;-35.248;149.138;2022-07-15T05:20:36;1.90;;;0.82;;
39930;SDS011;26635;-35.248;149.138;2022-07-15T05:23:07;1.85;;;0.88;;
39930;SDS011;26635;-35.248;149.138;2022-07-15T05:25:40;2.17;;;1.10;;
39930;SDS011;26635;-35.248;149.138;2022-07-15T05:28:11;2.17;;;1.30;;
39930;SDS011;26635;-35.248;149.138;2022-07-15T05:30:41;2.47;;;1.00;;
39930;SDS011;26635;-35.248;149.138;2022-07-15T05:33:14;2.58;;;0.93;;
39930;SDS011;26635;-35.248;149.138;2022-07-15T05:35:54;3.22;;;1.15;;
39930;SDS011;26635;-35.248;149.138;2022-07-15T05:38:24;3.47;;;1.15;;
39930;SDS011;26635;-35.248;149.138;2022-07-15T05:40:58;3.95;;;1.40;;
39930;SDS011;26635;-35.248;149.138;2022-07-15T05:43:29;4.82;;;1.60;;
39930;SDS011;26635;-35.248;149.138;2022-07-15T05:46:03;3.22;;;1.65;;
39930;SDS011;26635;-35.248;149.138;2022-07-15T05:48:50;4.65;;;1.77;;
39930;SDS011;26635;-35.248;149.138;2022-07-15T05:51:35;2.42;;;1.15;;
39930;SDS011;26635;-35.248;149.138;2022-07-15T05:54:06;2.25;;;0.88;;
39930;SDS011;26635;-35.248;149.138;2022-07-15T05:56:39;2.70;;;1.40;;
39930;SDS011;26635;-35.248;149.138;2022-07-15T05:59:10;2.63;;;1.10;;
39930;SDS011;26635;-35.248;149.138;2022-07-15T06:01:41;2.75;;;1.27;;
39930;SDS011;26635;-35.248;149.138;2022-07-15T06:04:12;3.17;;;1.80;;
39930;SDS011;26635;-35.248;149.138;2022-07-15T06:06:43;3.85;;;1.30;;
39930;SDS011;26635;-35.248;149.138;2022-07-15T06:09:13;3.53;;;1.63;;
39930;SDS011;26635;-35.248;149.138;2022-07-15T06:11:44;3.08;;;1.40;;
39930;SDS011;26635;-35.248;149.138;2022-07-15T06:14:15;3.35;;;1.60;;
39930;SDS011;26635;-35.248;149.138;2022-07-15T06:16:45;3.15;;;1.33;;
39930;SDS011;26635;-35.248;149.138;2022-07-15T06:19:17;2.75;;;1.27;;
39930;SDS011;26635;-35.248;149.138;2022-07-15T06:21:48;2.47;;;1.20;;
39930;SDS011;26635;-35.248;149.138;2022-07-15T06:24:19;3.92;;;1.10;;
39930;SDS011;26635;-35.248;149.138;2022-07-15T06:26:51;2.97;;;1.45;;
39930;SDS011;26635;-35.248;149.138;2022-07-15T06:29:21;2.95;;;1.20;;
39930;SDS011;26635;-35.248;149.138;2022-07-15T06:31:54;4.57;;;1.88;;
39930;SDS011;26635;-35.248;149.138;2022-07-15T06:34:24;3.85;;;1.23;;
39930;SDS011;26635;-35.248;149.138;2022-07-15T06:36:56;2.22;;;1.20;;
39930;SDS011;26635;-35.248;149.138;2022-07-15T06:39:27;2.92;;;1.60;;
39930;SDS011;26635;-35.248;149.138;2022-07-15T06:41:58;5.43;;;1.55;;
39930;SDS011;26635;-35.248;149.138;2022-07-15T06:44:30;3.63;;;1.08;;
39930;SDS011;26635;-35.248;149.138;2022-07-15T06:47:01;2.65;;;1.40;;
39930;SDS011;26635;-35.248;149.138;2022-07-15T06:49:37;3.72;;;1.35;;
39930;SDS011;26635;-35.248;149.138;2022-07-15T06:52:09;4.93;;;1.92;;
39930;SDS011;26635;-35.248;149.138;2022-07-15T06:54:40;3.10;;;1.50;;
39930;SDS011;26635;-35.248;149.138;2022-07-15T06:57:13;4.22;;;1.17;;
39930;SDS011;26635;-35.248;149.138;2022-07-15T06:59:46;2.95;;;1.10;;
39930;SDS011;26635;-35.248;149.138;2022-07-15T07:02:17;3.33;;;1.35;;
39930;SDS011;26635;-35.248;149.138;2022-07-15T07:04:49;4.95;;;2.45;;
39930;SDS011;26635;-35.248;149.138;2022-07-15T07:07:20;3.00;;;1.58;;
39930;SDS011;26635;-35.248;149.138;2022-07-15T07:09:51;3.28;;;1.40;;
39930;SDS011;26635;-35.248;149.138;2022-07-15T07:12:24;3.83;;;2.10;;
39930;SDS011;26635;-35.248;149.138;2022-07-15T07:14:56;4.22;;;1.92;;
39930;SDS011;26635;-35.248;149.138;2022-07-15T07:17:27;3.72;;;1.67;;
39930;SDS011;26635;-35.248;149.138;2022-07-15T07:19:57;6.45;;;3.03;;
39930;SDS011;26635;-35.248;149.138;2022-07-15T07:22:29;6.82;;;2.92;;
39930;SDS011;26635;-35.248;149.138;2022-07-15T07:25:00;4.93;;;2.08;;
39930;SDS011;26635;-35.248;149.138;2022-07-15T07:27:34;4.35;;;1.95;;
39930;SDS011;26635;-35.248;149.138;2022-07-15T07:30:21;4.93;;;2.15;;
39930;SDS011;26635;-35.248;149.138;2022-07-15T07:32:55;5.43;;;3.90;;
39930;SDS011;26635;-35.248;149.138;2022-07-15T07:35:25;4.97;;;2.83;;
39930;SDS011;26635;-35.248;149.138;2022-07-15T07:37:56;4.05;;;2.30;;
39930;SDS011;26635;-35.248;149.138;2022-07-15T07:40:28;6.07;;;2.42;;
39930;SDS011;26635;-35.248;149.138;2022-07-15T07:43:04;5.07;;;2.00;;
39930;SDS011;26635;-35.248;149.138;2022-07-15T07:45:39;3.78;;;2.17;;
39930;SDS011;26635;-35.248;149.138;2022-07-15T07:48:12;3.45;;;2.22;;
39930;SDS011;26635;-35.248;149.138;2022-07-15T07:50:48;4.22;;;2.80;;
39930;SDS011;26635;-35.248;149.138;2022-07-15T07:53:22;4.85;;;2.40;;
39930;SDS011;26635;-35.248;149.138;2022-07-15T07:56:00;4.75;;;3.08;;
39930;SDS011;26635;-35.248;149.138;2022-07-15T07:58:33;9.18;;;6.10;;
39930;SDS011;26635;-35.248;149.138;2022-07-15T08:01:04;8.57;;;5.30;;
39930;SDS011;26635;-35.248;149.138;2022-07-15T08:03:35;5.72;;;4.05;;
39930;SDS011;26635;-35.248;149.138;2022-07-15T08:06:08;5.35;;;3.72;;
39930;SDS011;26635;-35.248;149.138;2022-07-15T08:08:41;5.97;;;3.80;;
39930;SDS011;26635;-35.248;149.138;2022-07-15T08:11:15;5.72;;;3.55;;
39930;SDS011;26635;-35.248;149.138;2022-07-15T08:13:51;6.03;;;3.80;;
39930;SDS011;26635;-35.248;149.138;2022-07-15T08:16:25;7.78;;;2.92;;
39930;SDS011;26635;-35.248;149.138;2022-07-15T08:19:00;8.00;;;4.30;;
39930;SDS011;26635;-35.248;149.138;2022-07-15T08:21:32;5.82;;;3.63;;
39930;SDS011;26635;-35.248;149.138;2022-07-15T08:24:06;6.18;;;4.97;;
39930;SDS011;26635;-35.248;149.138;2022-07-15T08:27:19;5.00;;;2.85;;
39930;SDS011;26635;-35.248;149.138;2022-07-15T08:30:03;4.00;;;2.15;;
39930;SDS011;26635;-35.248;149.138;2022-07-15T08:32:37;5.68;;;2.45;;
39930;SDS011;26635;-35.248;149.138;2022-07-15T08:35:20;3.42;;;1.80;;
39930;SDS011;26635;-35.248;149.138;2022-07-15T08:38:06;5.32;;;2.10;;
39930;SDS011;26635;-35.248;149.138;2022-07-15T08:40:45;3.80;;;2.07;;
39930;SDS011;26635;-35.248;149.138;2022-07-15T08:43:31;5.30;;;2.00;;
39930;SDS011;26635;-35.248;149.138;2022-07-15T08:46:09;28.77;;;14.43;;
39930;SDS011;26635;-35.248;149.138;2022-07-15T08:48:52;62.30;;;27.80;;
39930;SDS011;26635;-35.248;149.138;2022-07-15T08:51:32;55.80;;;26.77;;
39930;SDS011;26635;-35.248;149.138;2022-07-15T08:54:08;44.53;;;20.73;;
39930;SDS011;26635;-35.248;149.138;2022-07-15T08:56:44;39.45;;;16.27;;
39930;SDS011;26635;-35.248;149.138;2022-07-15T08:59:22;26.17;;;11.83;;
39930;SDS011;26635;-35.248;149.138;2022-07-15T09:01:52;12.03;;;5.80;;
39930;SDS011;26635;-35.248;149.138;2022-07-15T09:08:49;9.53;;;4.00;;
39930;SDS011;26635;-35.248;149.138;2022-07-15T09:12:39;9.47;;;4.60;;
39930;SDS011;26635;-35.248;149.138;2022-07-15T23:39:49;9.20;;;4.93;;
39930;SDS011;26635;-35.248;149.138;2022-07-15T23:59:11;9.73;;;5.50;;
